Terminal Aerodrome Forecast
Issued by NWS

Home | Current Version | Previous Version | Graphics & Text | Print | Product List | Glossary On
Versions: 1 2 3 4 5 6 7 8 9 10 11 12 13 14 15
000
FTUS43 KICT 122300
TAFRSL
TAF
KRSL 122322Z 1300/1324 17013KT P6SM VCTS SCT060CB
      TEMPO 1301/1303 -TSRA BKN060CB
     FM130400 01010KT P6SM BKN100
     FM131500 06010KT P6SM SCT100=

USA.gov is the U.S. government's official web portal to all federal, state and local government web resources and services.